Time;durP1;ratioP1;P1;durP2;ratioP2;P2;SDS_P1;SDS_P2;PMS_P1;PMS_P2;Temp;Humidity;BMP_temperature;BMP_pressure;BME280_temperature;BME280_humidity;BME280_pressure;Samples;Min_cycle;Max_cycle;Signal;HPM_P1;HPM_P2
2021/07/07 00:01:23;;;;;;;1.60;1.30;;;;;;;19.76;93.41;100546.09;5047985;28;20306;-71
2021/07/07 00:03:50;;;;;;;1.13;1.03;;;;;;;19.75;92.17;100552.31;5046220;28;20237;-71
2021/07/07 00:06:16;;;;;;;2.33;1.00;;;;;;;19.74;91.63;100551.47;5043019;28;20266;-71
2021/07/07 00:08:42;;;;;;;1.50;1.10;;;;;;;19.69;90.06;100572.06;5046250;28;20199;-71
2021/07/07 00:11:10;;;;;;;1.07;1.03;;;;;;;19.68;89.50;100571.22;5047920;28;20219;-71
2021/07/07 00:13:37;;;;;;;0.80;0.80;;;;;;;19.66;90.17;100575.75;5047310;28;20211;-71
2021/07/07 00:16:04;;;;;;;1.20;1.10;;;;;;;19.61;90.02;100574.34;5044703;28;20236;-71
2021/07/07 00:18:30;;;;;;;1.27;1.10;;;;;;;19.57;90.32;100578.97;5041853;28;20644;-71
2021/07/07 00:20:56;;;;;;;1.07;0.97;;;;;;;19.51;90.75;100576.75;5045767;28;20207;-71
2021/07/07 00:23:24;;;;;;;1.63;1.00;;;;;;;19.44;90.71;100576.28;5044468;28;20616;-72
2021/07/07 00:25:51;;;;;;;1.30;1.20;;;;;;;19.45;90.82;100579.78;5046356;28;20227;-71
2021/07/07 00:28:20;;;;;;;1.87;1.03;;;;;;;19.41;90.88;100573.00;5043341;28;20219;-71
2021/07/07 00:30:47;;;;;;;1.47;1.10;;;;;;;19.39;91.26;100577.53;5044936;28;20235;-71
2021/07/07 00:33:15;;;;;;;1.10;1.00;;;;;;;19.34;91.38;100574.34;5037135;28;20196;-71
2021/07/07 00:35:42;;;;;;;2.30;1.10;;;;;;;19.30;91.33;100577.16;5041914;28;20289;-71
2021/07/07 00:38:08;;;;;;;1.10;1.00;;;;;;;19.26;91.53;100580.09;5043414;28;20203;-71
2021/07/07 00:40:35;;;;;;;1.20;1.10;;;;;;;19.23;91.91;100581.13;5047444;28;20667;-71
2021/07/07 00:43:01;;;;;;;1.40;1.00;;;;;;;19.20;91.73;100589.25;5046342;28;20203;-71
2021/07/07 00:45:29;;;;;;;1.63;1.00;;;;;;;19.19;92.29;100607.84;5045935;28;20211;-72
2021/07/07 00:47:55;;;;;;;0.90;0.90;;;;;;;19.15;91.57;100607.19;5044201;28;20207;-71
2021/07/07 00:50:23;;;;;;;1.30;1.20;;;;;;;19.11;91.82;100617.09;5043842;28;20286;-72
2021/07/07 00:52:49;;;;;;;1.10;1.00;;;;;;;19.10;92.02;100617.19;5045567;28;20214;-71
2021/07/07 00:55:18;;;;;;;2.23;1.13;;;;;;;19.03;92.05;100608.81;5047386;28;20247;-71
2021/07/07 00:57:44;;;;;;;1.27;0.90;;;;;;;18.99;92.23;100617.88;5047798;28;20218;-72
2021/07/07 01:00:13;;;;;;;1.27;1.10;;;;;;;18.96;92.16;100618.06;5040716;28;20563;-71
2021/07/07 01:02:43;;;;;;;1.07;0.97;;;;;;;18.91;91.71;100630.72;5042586;28;20216;-71
2021/07/07 01:05:12;;;;;;;1.10;1.00;;;;;;;18.85;91.44;100641.63;5035029;28;20583;-71
2021/07/07 01:07:39;;;;;;;1.20;1.10;;;;;;;18.82;91.23;100647.09;5040946;28;20202;-71
2021/07/07 01:10:06;;;;;;;1.43;1.20;;;;;;;18.76;91.23;100652.72;5040093;28;20786;-72
2021/07/07 01:12:33;;;;;;;1.20;1.00;;;;;;;18.72;91.23;100655.53;5043751;28;20195;-72
2021/07/07 01:18:48;;;;;;;1.20;1.10;;;;;;;18.61;91.12;100665.03;5043400;28;20203;-74
2021/07/07 01:21:16;;;;;;;2.40;0.90;;;;;;;18.47;88.70;100673.78;5045496;28;20303;-73
2021/07/07 01:23:43;;;;;;;1.83;0.90;;;;;;;18.39;86.92;100676.88;5040127;28;20215;-74
2021/07/07 01:26:10;;;;;;;1.03;0.93;;;;;;;18.34;85.43;100687.66;5044235;28;20227;-73
2021/07/07 01:28:36;;;;;;;1.63;0.87;;;;;;;18.32;86.71;100694.84;5046997;28;20563;-73
2021/07/07 01:31:04;;;;;;;1.20;1.00;;;;;;;18.25;86.99;100696.13;5041133;28;20202;-73
2021/07/07 01:33:31;;;;;;;1.73;0.80;;;;;;;18.19;86.81;100695.63;5046480;28;20316;-73
2021/07/07 01:35:58;;;;;;;1.93;0.80;;;;;;;18.06;86.44;100696.31;5043787;28;20195;-73
2021/07/07 01:38:24;;;;;;;0.70;0.70;;;;;;;17.96;87.41;100705.69;5044947;28;20563;-73
2021/07/07 01:40:55;;;;;;;1.00;0.80;;;;;;;17.88;88.11;100721.09;5042737;28;20284;-73
2021/07/07 01:43:22;;;;;;;0.97;0.87;;;;;;;17.74;88.43;100714.75;5045868;28;20235;-73
2021/07/07 01:45:48;;;;;;;0.67;0.67;;;;;;;17.62;89.33;100706.66;5044671;28;20223;-73
2021/07/07 01:48:15;;;;;;;1.00;0.90;;;;;;;17.55;89.88;100700.88;5038362;28;20291;-73
2021/07/07 01:50:41;;;;;;;1.23;1.00;;;;;;;17.45;90.22;100718.09;5039932;28;20195;-74
2021/07/07 01:53:08;;;;;;;0.73;0.73;;;;;;;17.46;90.75;100718.03;5043971;28;20211;-74
2021/07/07 01:55:34;;;;;;;1.07;0.80;;;;;;;17.42;91.39;100725.25;5043909;28;20202;-74
2021/07/07 01:58:02;;;;;;;1.40;0.90;;;;;;;17.36;91.79;100730.84;5044790;28;20295;-73
2021/07/07 02:00:31;;;;;;;0.90;0.83;;;;;;;17.29;91.96;100742.66;5042244;28;20667;-73
2021/07/07 02:02:58;;;;;;;1.00;0.90;;;;;;;17.23;91.42;100743.81;5045210;28;20605;-73
2021/07/07 02:05:28;;;;;;;2.43;0.83;;;;;;;17.20;91.64;100738.72;5039671;28;20219;-73
2021/07/07 02:07:55;;;;;;;1.73;1.00;;;;;;;17.10;91.63;100721.69;5043716;28;20211;-74
2021/07/07 02:10:22;;;;;;;2.50;0.90;;;;;;;17.08;91.73;100726.19;5045913;28;20199;-74
2021/07/07 02:12:49;;;;;;;1.40;1.00;;;;;;;17.05;92.24;100720.22;5042701;28;20314;-74
2021/07/07 02:15:20;;;;;;;2.20;1.13;;;;;;;16.92;90.41;100720.84;5048460;28;20219;-73
2021/07/07 02:17:48;;;;;;;1.47;1.00;;;;;;;16.89;90.59;100710.47;5042727;28;20227;-74
2021/07/07 02:20:15;;;;;;;1.10;1.00;;;;;;;16.88;89.91;100713.19;5040154;28;20794;-73
2021/07/07 02:22:43;;;;;;;1.07;0.90;;;;;;;16.84;89.50;100723.84;5045577;28;20240;-73
2021/07/07 02:25:12;;;;;;;1.97;0.80;;;;;;;16.77;88.43;100727.69;5045767;28;20888;-74
2021/07/07 02:27:39;;;;;;;2.97;0.80;;;;;;;16.76;89.09;100720.75;5042627;28;20319;-72
2021/07/07 02:30:08;;;;;;;0.70;0.60;;;;;;;16.75;88.11;100711.13;5039145;28;20208;-74
2021/07/07 02:32:36;;;;;;;0.90;0.70;;;;;;;16.74;88.42;100698.88;5042174;28;20209;-73
2021/07/07 02:35:04;;;;;;;1.50;0.90;;;;;;;16.70;89.03;100713.16;5041526;28;20219;-73
2021/07/07 02:37:31;;;;;;;0.93;0.80;;;;;;;16.68;88.73;100717.63;5038617;28;20264;-73
2021/07/07 02:39:57;;;;;;;0.80;0.80;;;;;;;16.62;89.54;100708.28;5038803;28;20520;-73
2021/07/07 02:42:24;;;;;;;1.03;0.87;;;;;;;16.65;90.11;100702.00;5043217;28;20594;-74
2021/07/07 02:44:50;;;;;;;1.10;0.90;;;;;;;16.64;88.41;100693.25;5044409;28;20223;-73
2021/07/07 02:47:17;;;;;;;2.90;0.90;;;;;;;16.61;89.08;100679.41;5041946;28;20317;-74
2021/07/07 02:49:44;;;;;;;1.10;0.90;;;;;;;16.60;89.09;100683.81;5045475;28;20207;-73
2021/07/07 02:52:11;;;;;;;1.63;0.90;;;;;;;16.57;89.96;100686.59;5039540;28;20202;-74
2021/07/07 02:54:37;;;;;;;1.10;0.70;;;;;;;16.50;88.67;100677.31;5041172;28;20227;-73
2021/07/07 02:57:04;;;;;;;2.23;0.90;;;;;;;16.47;88.87;100659.03;5044418;28;20296;-73
2021/07/07 02:59:30;;;;;;;1.73;0.80;;;;;;;16.48;89.48;100660.75;5044784;28;20215;-74
2021/07/07 03:01:56;;;;;;;1.93;0.90;;;;;;;16.51;89.72;100671.09;5041325;28;20330;-74
2021/07/07 03:04:23;;;;;;;1.80;0.90;;;;;;;16.50;90.45;100676.44;5038465;28;20236;-73
2021/07/07 03:06:50;;;;;;;1.50;0.90;;;;;;;16.54;91.30;100672.75;5036359;28;20636;-73
2021/07/07 03:09:17;;;;;;;1.43;0.90;;;;;;;16.51;90.15;100678.16;5038273;28;20202;-73
2021/07/07 03:11:43;;;;;;;1.50;1.10;;;;;;;16.48;89.20;100676.53;5038376;28;20357;-73
2021/07/07 03:14:09;;;;;;;1.03;0.90;;;;;;;16.49;89.00;100667.69;5040791;28;20233;-73
2021/07/07 03:16:36;;;;;;;1.03;0.87;;;;;;;16.46;87.99;100644.16;5037128;28;20203;-73
2021/07/07 03:19:02;;;;;;;1.27;1.07;;;;;;;16.46;88.39;100649.41;5043381;28;20202;-74
2021/07/07 03:21:29;;;;;;;1.77;0.70;;;;;;;16.48;89.13;100655.47;5046469;28;20296;-73
2021/07/07 03:23:56;;;;;;;1.47;0.90;;;;;;;16.42;87.78;100672.41;5046997;28;20589;-73
2021/07/07 03:26:23;;;;;;;0.80;0.80;;;;;;;16.53;89.42;100673.66;5047578;28;20314;-73
2021/07/07 03:28:49;;;;;;;0.80;0.80;;;;;;;16.49;88.16;100682.63;5047630;28;20230;-73
2021/07/07 03:31:16;;;;;;;0.63;0.63;;;;;;;16.56;89.89;100690.16;5047929;28;20287;-73
2021/07/07 03:33:43;;;;;;;1.07;1.00;;;;;;;16.57;89.52;100693.63;5046764;28;20215;-73
2021/07/07 03:36:09;;;;;;;2.23;0.87;;;;;;;16.59;89.64;100697.88;5041746;28;20234;-73
2021/07/07 03:38:35;;;;;;;1.17;0.80;;;;;;;16.61;91.31;100696.03;5044651;28;20206;-73
2021/07/07 03:41:03;;;;;;;1.73;1.00;;;;;;;16.61;90.43;100697.81;5048989;28;20633;-73
2021/07/07 03:43:30;;;;;;;0.87;0.80;;;;;;;16.62;90.90;100704.78;5049524;28;20222;-74
2021/07/07 03:45:56;;;;;;;1.90;0.93;;;;;;;16.56;88.33;100700.66;5041688;28;20313;-74
2021/07/07 03:48:22;;;;;;;2.07;0.80;;;;;;;16.61;89.52;100698.66;5049828;28;20210;-73
2021/07/07 03:50:49;;;;;;;1.97;0.90;;;;;;;16.72;92.60;100721.81;5043618;28;20301;-73
2021/07/07 03:53:15;;;;;;;1.17;0.87;;;;;;;16.66;90.85;100735.28;5049785;28;20238;-72
2021/07/07 03:55:42;;;;;;;0.90;0.83;;;;;;;16.59;91.39;100728.63;5045817;28;20294;-74
2021/07/07 03:58:09;;;;;;;1.10;1.00;;;;;;;16.57;90.46;100714.66;5051517;28;20194;-74
2021/07/07 04:00:36;;;;;;;1.13;1.03;;;;;;;16.64;92.15;100735.38;5045979;28;20215;-73
2021/07/07 04:03:02;;;;;;;0.90;0.90;;;;;;;16.68;91.44;100757.13;5050299;28;20207;-73
2021/07/07 04:05:29;;;;;;;1.37;0.93;;;;;;;16.67;91.03;100781.72;5047493;28;20301;-74
2021/07/07 04:07:56;;;;;;;1.50;0.77;;;;;;;16.59;91.08;100781.28;5045283;28;20880;-73
2021/07/07 04:10:23;;;;;;;1.23;0.90;;;;;;;16.56;91.53;100763.00;5047648;28;20203;-73
2021/07/07 04:12:50;;;;;;;1.53;0.87;;;;;;;16.59;91.98;100771.59;5041146;28;20203;-73
2021/07/07 04:15:19;;;;;;;0.90;0.90;;;;;;;16.62;92.26;100794.25;5049053;28;20661;-73
2021/07/07 04:17:46;;;;;;;1.00;0.90;;;;;;;16.62;93.47;100802.16;5041941;28;20218;-73
2021/07/07 04:20:15;;;;;;;0.77;0.77;;;;;;;16.51;93.10;100794.78;5047912;28;20206;-72
2021/07/07 04:22:42;;;;;;;0.80;0.80;;;;;;;16.51;94.20;100804.47;5046198;28;20252;-72
2021/07/07 04:25:10;;;;;;;2.40;1.10;;;;;;;16.54;97.77;100812.22;5042176;28;20220;-73
2021/07/07 04:27:37;;;;;;;4.17;1.07;;;;;;;16.42;96.97;100819.75;5042556;28;20219;-73
2021/07/07 04:30:06;;;;;;;2.10;1.00;;;;;;;16.36;97.52;100809.53;5047889;28;20223;-72
2021/07/07 04:32:33;;;;;;;3.67;1.10;;;;;;;16.33;100.00;100793.91;5053691;28;20745;-72
2021/07/07 04:35:00;;;;;;;3.03;0.90;;;;;;;16.25;99.03;100785.50;5046072;28;20297;-72
2021/07/07 04:37:26;;;;;;;1.97;1.10;;;;;;;16.30;100.00;100782.66;5047832;28;20192;-72
2021/07/07 04:39:55;;;;;;;1.03;0.93;;;;;;;16.19;100.00;100798.97;5044318;28;20219;-72
2021/07/07 04:42:21;;;;;;;1.53;0.90;;;;;;;16.15;100.00;100802.66;5049233;28;20235;-72
2021/07/07 04:44:48;;;;;;;0.97;0.90;;;;;;;16.12;100.00;100798.38;5041978;28;20748;-72
2021/07/07 04:47:14;;;;;;;0.93;0.90;;;;;;;16.15;100.00;100800.03;5049237;28;20227;-72
2021/07/07 04:49:42;;;;;;;2.60;0.90;;;;;;;16.11;100.00;100806.34;5048821;28;20213;-72
2021/07/07 04:52:08;;;;;;;1.87;1.10;;;;;;;16.08;100.00;100800.31;5047759;28;20670;-72
2021/07/07 04:54:35;;;;;;;1.20;1.10;;;;;;;16.13;100.00;100804.50;5049042;28;20782;-72
2021/07/07 04:57:01;;;;;;;1.90;0.90;;;;;;;16.20;100.00;100804.16;5050060;28;20195;-72
2021/07/07 04:59:29;;;;;;;1.90;1.20;;;;;;;16.13;100.00;100805.38;5045688;28;20813;-72
2021/07/07 05:01:55;;;;;;;1.10;1.00;;;;;;;16.16;100.00;100804.34;5044141;28;20216;-72
2021/07/07 05:04:21;;;;;;;1.77;1.10;;;;;;;16.15;100.00;100811.41;5044283;28;20866;-72
2021/07/07 05:06:49;;;;;;;1.30;1.20;;;;;;;16.21;100.00;100821.63;5043202;28;20662;-72
2021/07/07 05:09:16;;;;;;;1.47;1.03;;;;;;;16.16;100.00;100818.34;5046581;28;20287;-72
2021/07/07 05:11:42;;;;;;;3.77;1.20;;;;;;;16.05;100.00;100808.34;5040068;28;20207;-72
2021/07/07 05:14:09;;;;;;;3.10;1.10;;;;;;;16.09;100.00;100804.66;5044118;28;20758;-72
2021/07/07 05:16:35;;;;;;;1.80;1.20;;;;;;;16.12;100.00;100810.69;5036919;28;20198;-72
2021/07/07 05:19:02;;;;;;;1.43;1.17;;;;;;;16.11;100.00;100811.59;5047459;28;20290;-72
2021/07/07 05:21:28;;;;;;;1.67;1.10;;;;;;;16.03;100.00;100812.81;5036778;28;20194;-72
2021/07/07 05:23:56;;;;;;;1.67;1.20;;;;;;;16.04;100.00;100803.13;5044124;28;20262;-72
2021/07/07 05:26:22;;;;;;;3.20;1.30;;;;;;;16.01;100.00;100798.03;5045061;28;20687;-72
2021/07/07 05:28:49;;;;;;;1.37;1.10;;;;;;;16.04;100.00;100816.28;5046873;28;20569;-73
2021/07/07 05:31:15;;;;;;;1.40;1.30;;;;;;;15.98;100.00;100843.72;5046463;28;20205;-72
2021/07/07 05:33:42;;;;;;;4.73;1.30;;;;;;;15.90;100.00;100859.84;5048117;28;20797;-72
2021/07/07 05:36:10;;;;;;;2.03;1.20;;;;;;;15.78;100.00;100857.78;5046754;28;20250;-72
2021/07/07 05:38:38;;;;;;;1.20;1.10;;;;;;;15.78;100.00;100841.16;5048761;28;20200;-72
2021/07/07 05:41:05;;;;;;;2.30;1.20;;;;;;;15.80;100.00;100840.16;5039645;28;20207;-72
2021/07/07 05:43:32;;;;;;;2.63;1.20;;;;;;;15.96;100.00;100863.13;5041738;28;20257;-72
2021/07/07 05:45:59;;;;;;;1.40;1.30;;;;;;;15.90;100.00;100915.06;5049279;28;20682;-73
2021/07/07 05:48:25;;;;;;;1.67;1.50;;;;;;;15.84;100.00;100931.09;5041078;28;20215;-73
2021/07/07 05:50:53;;;;;;;1.67;1.40;;;;;;;15.77;100.00;100918.28;5045469;28;20210;-73
2021/07/07 05:53:19;;;;;;;2.90;1.60;;;;;;;15.68;100.00;100878.31;5042615;28;20207;-73
2021/07/07 05:55:46;;;;;;;4.23;1.60;;;;;;;15.77;100.00;100881.50;5046153;28;20570;-73
2021/07/07 05:58:13;;;;;;;1.57;1.47;;;;;;;15.74;100.00;100900.84;5045829;28;20198;-72
2021/07/07 06:00:40;;;;;;;2.00;1.70;;;;;;;15.73;100.00;100907.03;5045755;28;20207;-72
2021/07/07 06:03:06;;;;;;;2.40;1.80;;;;;;;15.74;100.00;100898.19;5040613;28;20687;-72
2021/07/07 06:05:33;;;;;;;1.93;1.70;;;;;;;15.71;100.00;100886.06;5046158;28;20205;-72
2021/07/07 06:08:00;;;;;;;3.27;1.77;;;;;;;15.73;100.00;100903.56;5046881;28;20247;-73
2021/07/07 06:10:27;;;;;;;2.00;1.77;;;;;;;15.81;100.00;100939.13;5047206;28;20214;-72
2021/07/07 06:12:55;;;;;;;1.70;1.60;;;;;;;15.81;100.00;100944.41;5041862;28;20248;-73
2021/07/07 06:15:24;;;;;;;3.20;1.97;;;;;;;15.77;100.00;100934.06;5046340;28;20222;-73
2021/07/07 06:17:51;;;;;;;4.30;1.70;;;;;;;15.76;100.00;100914.81;5038954;28;20212;-73
2021/07/07 06:20:17;;;;;;;1.60;1.50;;;;;;;15.84;100.00;100903.97;5042719;28;20556;-75
2021/07/07 06:22:45;;;;;;;1.47;1.30;;;;;;;15.81;100.00;100919.84;5043340;28;20230;-73
2021/07/07 06:25:14;;;;;;;2.33;1.80;;;;;;;15.88;100.00;100955.47;5039584;28;20230;-73
2021/07/07 06:27:41;;;;;;;2.43;1.80;;;;;;;15.77;100.00;100962.97;5044942;28;20223;-73
2021/07/07 06:30:09;;;;;;;4.13;1.90;;;;;;;15.66;100.00;100934.50;5043312;28;20252;-73
2021/07/07 06:32:37;;;;;;;2.77;1.70;;;;;;;15.66;100.00;100898.53;5043588;28;20207;-73
2021/07/07 06:35:05;;;;;;;3.00;1.67;;;;;;;15.66;100.00;100893.28;5047072;28;20732;-73
2021/07/07 06:37:31;;;;;;;1.97;1.50;;;;;;;15.73;100.00;100907.03;5045492;28;20210;-73
2021/07/07 06:39:57;;;;;;;3.83;1.70;;;;;;;15.86;100.00;100913.47;5037944;28;20202;-72
2021/07/07 06:42:24;;;;;;;3.47;1.80;;;;;;;15.98;100.00;100914.72;5043559;28;20199;-73
2021/07/07 06:44:50;;;;;;;3.83;1.83;;;;;;;16.03;100.00;100922.41;5036407;28;20234;-74
2021/07/07 06:47:17;;;;;;;2.50;1.87;;;;;;;15.93;100.00;100923.75;5041324;28;20225;-73
2021/07/07 06:49:45;;;;;;;1.90;1.80;;;;;;;16.02;100.00;100921.56;5042278;28;20203;-72
2021/07/07 06:52:11;;;;;;;2.10;1.73;;;;;;;15.98;100.00;100916.50;5043602;28;20203;-73
2021/07/07 06:54:37;;;;;;;2.10;1.90;;;;;;;16.02;100.00;100933.84;5045391;28;20229;-72
2021/07/07 06:57:04;;;;;;;3.23;1.97;;;;;;;16.07;100.00;100952.91;5039468;28;20213;-73
2021/07/07 06:59:30;;;;;;;2.10;1.83;;;;;;;16.03;100.00;100969.75;5043190;28;20210;-73
2021/07/07 07:01:57;;;;;;;2.30;2.10;;;;;;;16.05;100.00;100963.50;5037640;28;20289;-73
2021/07/07 07:04:23;;;;;;;2.60;1.90;;;;;;;16.03;100.00;100957.44;5041121;28;20227;-73
2021/07/07 07:06:51;;;;;;;2.90;2.00;;;;;;;15.99;100.00;100941.88;5032817;28;20596;-72
2021/07/07 07:09:17;;;;;;;2.77;2.00;;;;;;;16.08;100.00;100941.47;5042435;28;20210;-73
2021/07/07 07:11:44;;;;;;;2.30;2.10;;;;;;;16.07;100.00;100953.75;5046866;28;20693;-74
2021/07/07 07:14:10;;;;;;;2.40;1.90;;;;;;;16.14;100.00;100962.25;5043909;28;20224;-73
2021/07/07 07:16:37;;;;;;;2.67;2.10;;;;;;;16.18;100.00;100962.97;5039087;28;20302;-72
2021/07/07 07:19:03;;;;;;;2.87;2.07;;;;;;;16.20;100.00;100961.09;5044281;28;20537;-74
2021/07/07 07:21:30;;;;;;;4.37;2.23;;;;;;;16.30;100.00;100965.03;5039550;28;20205;-73
2021/07/07 07:23:57;;;;;;;2.40;2.20;;;;;;;16.25;100.00;100967.91;5044466;28;20229;-72
2021/07/07 07:26:24;;;;;;;3.00;2.63;;;;;;;16.30;100.00;100972.94;5045947;28;20206;-73
2021/07/07 07:28:50;;;;;;;2.37;2.17;;;;;;;16.28;100.00;100966.91;5043337;28;20195;-73
2021/07/07 07:31:17;;;;;;;2.60;2.40;;;;;;;16.26;100.00;100955.59;5044173;28;20208;-73
2021/07/07 07:33:43;;;;;;;2.50;2.30;;;;;;;16.37;100.00;100942.78;5039722;28;20219;-72
2021/07/07 07:36:10;;;;;;;3.83;2.53;;;;;;;16.55;100.00;100942.88;5043971;28;20282;-72
2021/07/07 07:38:40;;;;;;;3.03;2.63;;;;;;;16.49;100.00;100943.19;5042217;28;20199;-72
2021/07/07 07:41:08;;;;;;;3.60;2.30;;;;;;;16.50;100.00;100951.00;5041490;28;20195;-72
2021/07/07 07:43:35;;;;;;;5.03;2.60;;;;;;;16.54;100.00;100956.97;5043115;28;20215;-72
2021/07/07 07:46:02;;;;;;;3.77;2.50;;;;;;;16.55;100.00;100956.03;5044059;28;20208;-73
2021/07/07 07:48:28;;;;;;;2.50;2.20;;;;;;;16.61;100.00;100955.78;5043746;28;20231;-72
2021/07/07 07:50:55;;;;;;;2.70;2.43;;;;;;;16.58;100.00;100953.28;5035135;28;20212;-72
2021/07/07 07:53:22;;;;;;;3.80;2.53;;;;;;;16.58;100.00;100956.75;5042151;28;20235;-72
2021/07/07 07:55:49;;;;;;;2.37;2.17;;;;;;;16.74;100.00;100959.53;5044960;28;20301;-73
2021/07/07 07:58:18;;;;;;;2.93;2.40;;;;;;;16.64;100.00;100974.91;5047945;28;20213;-73
2021/07/07 08:00:46;;;;;;;2.70;2.50;;;;;;;16.60;100.00;100978.63;5043676;28;20214;-72
2021/07/07 08:03:12;;;;;;;3.77;2.60;;;;;;;16.56;100.00;100991.97;5036219;28;20212;-72
2021/07/07 08:05:39;;;;;;;3.30;2.40;;;;;;;16.60;100.00;100993.53;5040914;28;20561;-72
2021/07/07 08:08:06;;;;;;;3.03;2.50;;;;;;;16.57;100.00;100991.03;5038881;28;20227;-73
2021/07/07 08:10:33;;;;;;;2.73;2.47;;;;;;;16.60;100.00;101006.69;5046573;28;20846;-73
2021/07/07 08:13:00;;;;;;;2.50;2.30;;;;;;;16.64;100.00;101005.66;5046635;28;20587;-73
2021/07/07 08:15:28;;;;;;;3.83;2.60;;;;;;;16.69;100.00;101003.63;5049268;28;20230;-73
2021/07/07 08:17:56;;;;;;;2.90;2.63;;;;;;;16.65;100.00;101009.97;5048236;28;20200;-72
2021/07/07 08:20:24;;;;;;;4.53;2.77;;;;;;;16.73;100.00;101014.91;5041503;28;20574;-72
2021/07/07 08:22:52;;;;;;;6.00;2.80;;;;;;;16.81;100.00;101023.28;5046662;28;20206;-73
2021/07/07 08:25:20;;;;;;;3.10;2.90;;;;;;;16.76;100.00;101020.91;5044368;28;20227;-73
2021/07/07 08:27:47;;;;;;;4.17;3.10;;;;;;;16.76;100.00;101025.28;5047720;28;20265;-72
2021/07/07 08:30:15;;;;;;;3.10;2.80;;;;;;;16.72;100.00;101027.19;5042037;28;20205;-72
2021/07/07 08:32:43;;;;;;;3.00;2.70;;;;;;;16.77;100.00;101019.09;5039872;28;20203;-72
2021/07/07 08:35:11;;;;;;;3.37;2.50;;;;;;;16.80;100.00;101016.34;5046957;28;20728;-73
2021/07/07 08:37:39;;;;;;;3.47;2.20;;;;;;;16.88;100.00;101013.38;5051016;28;20192;-73
2021/07/07 08:40:07;;;;;;;4.00;2.83;;;;;;;16.89;100.00;101023.84;5046614;28;20630;-74
2021/07/07 08:42:36;;;;;;;2.77;2.57;;;;;;;16.90;100.00;101032.59;5042798;28;20200;-74
2021/07/07 08:45:05;;;;;;;2.67;2.47;;;;;;;16.90;100.00;101027.31;5044124;28;20296;-73
2021/07/07 08:47:31;;;;;;;2.40;2.20;;;;;;;16.92;100.00;101022.81;5045206;28;20221;-72
2021/07/07 08:49:59;;;;;;;3.47;2.30;;;;;;;16.97;100.00;101020.84;5059552;28;20290;-72
2021/07/07 08:52:25;;;;;;;3.77;2.50;;;;;;;16.98;100.00;101020.78;5042018;28;20209;-72
2021/07/07 08:54:52;;;;;;;2.40;2.13;;;;;;;17.00;100.00;101021.53;5044180;28;20310;-72
2021/07/07 08:57:20;;;;;;;2.30;2.10;;;;;;;17.03;100.00;101031.94;5043232;28;20721;-72
2021/07/07 08:59:47;;;;;;;2.10;2.00;;;;;;;17.09;100.00;101024.69;5046857;28;20208;-74
2021/07/07 09:02:13;;;;;;;2.53;2.13;;;;;;;17.10;100.00;101031.69;5040733;28;20637;-73
2021/07/07 09:04:41;;;;;;;2.87;2.40;;;;;;;17.08;100.00;101037.00;5036412;28;20319;-74
2021/07/07 09:07:10;;;;;;;4.00;2.53;;;;;;;17.16;100.00;101044.53;5043259;28;20219;-73
2021/07/07 09:09:39;;;;;;;3.00;2.10;;;;;;;17.21;100.00;101043.41;5047622;28;20299;-74
2021/07/07 09:12:14;;;;;;;2.00;1.90;;;;;;;17.29;100.00;101043.06;5043309;28;20558;-74
2021/07/07 09:14:42;;;;;;;2.40;2.20;;;;;;;17.25;100.00;101052.00;5049878;28;20219;-73
2021/07/07 09:17:11;;;;;;;2.10;2.00;;;;;;;17.25;100.00;101051.16;5044214;28;20276;-73
2021/07/07 09:19:38;;;;;;;2.43;2.23;;;;;;;17.27;100.00;101057.22;5039596;28;20302;-74
2021/07/07 09:22:06;;;;;;;2.30;2.10;;;;;;;17.28;100.00;101061.56;5048013;28;20199;-73
2021/07/07 09:24:36;;;;;;;2.63;2.27;;;;;;;17.31;100.00;101061.44;5042483;28;20310;-73
2021/07/07 09:27:04;;;;;;;2.30;2.10;;;;;;;17.32;100.00;101061.31;5046325;28;20204;-73
2021/07/07 09:29:37;;;;;;;2.77;2.40;;;;;;;17.36;100.00;101057.63;5045515;28;20215;-73
2021/07/07 09:32:16;;;;;;;3.33;2.30;;;;;;;17.35;100.00;101052.44;5043379;28;20628;-73
2021/07/07 09:34:44;;;;;;;2.50;2.30;;;;;;;17.34;100.00;101061.25;5044910;28;20230;-73
2021/07/07 09:37:19;;;;;;;2.53;2.03;;;;;;;17.39;100.00;101067.16;5042489;28;20216;-73
2021/07/07 09:39:47;;;;;;;2.67;2.30;;;;;;;17.32;100.00;101074.50;5047673;28;20215;-73
2021/07/07 09:42:14;;;;;;;2.00;1.90;;;;;;;17.38;100.00;101070.75;5040174;28;20200;-73
2021/07/07 09:44:40;;;;;;;2.40;2.17;;;;;;;17.41;100.00;101075.84;5041663;28;20303;-73
2021/07/07 09:47:07;;;;;;;3.23;2.80;;;;;;;17.45;100.00;101076.56;5037060;28;21559;-73
2021/07/07 09:49:33;;;;;;;2.47;2.27;;;;;;;17.47;100.00;101088.75;5045101;28;20453;-73
2021/07/07 09:52:00;;;;;;;2.87;2.67;;;;;;;17.47;100.00;101088.75;5039346;28;20211;-73
2021/07/07 09:54:27;;;;;;;3.27;2.97;;;;;;;17.44;100.00;101095.97;5046286;28;20227;-73
2021/07/07 09:56:55;;;;;;;4.33;3.13;;;;;;;17.49;100.00;101102.72;5038647;28;20203;-73
2021/07/07 09:59:21;;;;;;;3.17;2.90;;;;;;;17.61;100.00;101096.00;5039788;28;20248;-73
2021/07/07 10:01:48;;;;;;;4.40;3.10;;;;;;;17.63;100.00;101099.41;5036988;28;20219;-73
2021/07/07 10:04:16;;;;;;;3.97;3.50;;;;;;;17.62;100.00;101104.75;5041378;28;20605;-73
2021/07/07 10:06:43;;;;;;;5.70;3.23;;;;;;;17.67;100.00;101105.41;5043180;28;20211;-73
2021/07/07 10:09:10;;;;;;;3.70;3.40;;;;;;;17.71;100.00;101109.59;5041841;28;20305;-73
2021/07/07 10:11:38;;;;;;;3.77;3.43;;;;;;;17.75;100.00;101106.75;5044699;28;21116;-73
2021/07/07 10:14:08;;;;;;;3.60;3.30;;;;;;;17.80;100.00;101106.53;5040775;28;20223;-73
2021/07/07 10:16:36;;;;;;;4.07;3.63;;;;;;;17.89;100.00;101111.38;5044386;28;20242;-73
2021/07/07 10:19:03;;;;;;;4.43;4.03;;;;;;;17.94;100.00;101117.28;5046994;28;20195;-73
2021/07/07 10:21:29;;;;;;;4.03;3.73;;;;;;;18.05;100.00;101123.81;5046027;28;20205;-73
2021/07/07 10:23:56;;;;;;;4.27;3.87;;;;;;;18.07;100.00;101130.72;5039559;28;20230;-75
2021/07/07 10:26:23;;;;;;;4.50;4.10;;;;;;;18.05;100.00;101140.50;5037484;28;20203;-73
2021/07/07 10:28:50;;;;;;;4.10;3.70;;;;;;;18.01;100.00;101135.44;5046120;28;20423;-73
2021/07/07 10:31:20;;;;;;;4.50;4.10;;;;;;;17.98;100.00;101136.44;5042386;28;20204;-73
2021/07/07 10:33:47;;;;;;;5.47;3.77;;;;;;;18.00;100.00;101134.59;5041266;28;20222;-73
2021/07/07 10:36:23;;;;;;;4.17;3.77;;;;;;;18.01;100.00;101123.13;5044240;28;20195;-74
2021/07/07 10:38:54;;;;;;;4.70;3.70;;;;;;;18.05;100.00;101126.44;5035789;28;20746;-73
2021/07/07 10:41:58;;;;;;;4.10;3.80;;;;;;;18.10;100.00;101114.72;5041991;28;20199;-73
2021/07/07 10:44:48;;;;;;;4.03;3.73;;;;;;;18.14;100.00;101116.28;5001466;28;20236;-74
2021/07/07 10:47:17;;;;;;;4.80;4.30;;;;;;;18.23;100.00;101108.84;5043573;28;20313;-73
2021/07/07 10:49:45;;;;;;;3.80;3.47;;;;;;;18.27;100.00;101111.22;5043278;28;20219;-73
2021/07/07 10:52:15;;;;;;;3.77;3.30;;;;;;;18.32;100.00;101117.13;5035686;28;20298;-73
2021/07/07 10:54:53;;;;;;;3.80;3.50;;;;;;;18.40;100.00;101119.41;5044917;28;20337;-74
2021/07/07 10:57:23;;;;;;;3.80;3.40;;;;;;;18.37;98.71;101119.53;5040158;28;20210;-73
2021/07/07 10:59:53;;;;;;;3.20;2.90;;;;;;;18.42;99.22;101120.16;5046353;28;20199;-73
2021/07/07 11:02:23;;;;;;;3.40;3.10;;;;;;;18.46;100.00;101115.59;5043568;28;20237;-73
2021/07/07 11:04:51;;;;;;;3.10;2.90;;;;;;;18.53;100.00;101119.63;5045884;28;20322;-73
2021/07/07 11:07:33;;;;;;;4.23;2.93;;;;;;;18.51;97.99;101121.47;5042722;28;20211;-73
2021/07/07 11:10:02;;;;;;;2.57;2.37;;;;;;;18.68;97.89;101125.88;5045240;28;20288;-73
2021/07/07 11:13:06;;;;;;;2.50;2.30;;;;;;;18.80;97.31;101112.03;5042475;28;20567;-74
2021/07/07 11:15:35;;;;;;;2.70;2.50;;;;;;;18.98;97.45;101097.03;5041433;28;20313;-73
2021/07/07 11:18:03;;;;;;;2.70;2.50;;;;;;;19.01;95.58;101085.44;5038107;28;20207;-73
2021/07/07 11:20:32;;;;;;;3.47;2.33;;;;;;;19.23;97.53;101091.25;5039255;28;20250;-74
2021/07/07 11:23:00;;;;;;;3.30;2.70;;;;;;;19.36;96.99;101095.84;5051348;28;20289;-74
2021/07/07 11:25:28;;;;;;;2.77;2.40;;;;;;;19.55;96.71;101099.19;5039918;28;20304;-73
2021/07/07 11:27:55;;;;;;;2.50;2.30;;;;;;;19.55;95.54;101091.25;5038325;28;20214;-73